This is the latest recevied weather packets stored in our database for station/object KO4DYK. If no packets are shown the sender has not sent any weather packets the latest 10 day(s).
| Time | Temp. | Humidity | Pressure | Rain* | Wind** | Luminosity | Snow |
|---|---|---|---|---|---|---|---|
| 1788544778 | 37.22° C | 52% | 1017 hPa | 0 mm | - | 720 W/m² | - |
| 1788544478 | 35.56° C | 52% | 1017.1 hPa | 0 mm | - | 667 W/m² | - |
| 1788544177 | 35° C | 56% | 1017.6 hPa | 0 mm | - | 642 W/m² | - |
| 1788543873 | 33.89° C | 67% | 1017.6 hPa | 0 mm | - | 645 W/m² | - |
| 1788543570 | 35° C | 65% | 1017.4 hPa | 0 mm | - | 102 W/m² | - |
| 1788543270 | 35° C | 61% | 1017.7 hPa | 0 mm | - | 111 W/m² | - |
| 1788542965 | 35° C | 59% | 1017.7 hPa | 0 mm | - | 136 W/m² | - |
| 1788542660 | 35.56° C | 64% | 1017.8 hPa | 0 mm | - | 193 W/m² | - |
| 1788542354 | 36.11° C | 61% | 1017.7 hPa | 0 mm | - | 132 W/m² | - |
| 1788542050 | 36.67° C | 58% | 1017.7 hPa | 0 mm | - | 165 W/m² | - |
| 1788541747 | 37.78° C | 54% | 1017.9 hPa | 0 mm | - | 98 W/m² | - |
| 1788541441 | 37.78° C | 56% | 1017.9 hPa | 0 mm | - | 120 W/m² | - |
| 1788541136 | 36.67° C | 55% | 1017.9 hPa | 0 mm | - | 669 W/m² | - |
| 1788540835 | 35.56° C | 58% | 1018 hPa | 0 mm | - | 131 W/m² | - |
| 1788540530 | 35.56° C | 56% | 1018.1 hPa | 0 mm | - | 626 W/m² | - |
| 1788540229 | 36.11° C | 55% | 1018 hPa | 0 mm | - | 618 W/m² | - |
| 1788539926 | 35.56° C | 56% | 1018.1 hPa | 0 mm | - | 584 W/m² | - |
| 1788539626 | 37.22° C | 53% | 1018.1 hPa | 0 mm | - | 530 W/m² | - |
| 1788539325 | 35.56° C | 57% | 1018.2 hPa | 0 mm | - | 560 W/m² | - |
| 1788539021 | 36.11° C | 57% | 1018.2 hPa | 0 mm | - | 551 W/m² | - |
| 1788538716 | 37.22° C | 54% | 1018.3 hPa | 0 mm | - | 622 W/m² | - |
| 1788538411 | 36.11° C | 57% | 1018.4 hPa | 0 mm | - | 634 W/m² | - |
| 1788538106 | 36.67° C | 56% | 1018.3 hPa | 0 mm | - | 590 W/m² | - |
| 1788537806 | 36.11° C | 57% | 1018.2 hPa | 0 mm | - | 601 W/m² | - |
| 1788537501 | 36.11° C | 57% | 1018.4 hPa | 0 mm | - | 619 W/m² | - |
* Rain latest hour (hover to see other rain measurements)
** Current wind speed in m/s (hover to see current wind gust speed)